AFR940 LFPG-FCBB
Flight info
| Callsign | AFR940 |
|---|---|
| Flight time | 7h 5m |
| Altitude | 39000 |
| Route | OKASI DCT SIQLE DCT UTUVA DCT LIQID DCT SALIN DCT DIVKO DCT SOSUR UM989 OLNUL DCT KAMER UM998 NEBRA/N0481F410 UM998 MIU UG727 TIVAL NAMOT1M |
| Aircraft | A359/H-SDE2E3GHIJ3J4J5LM1ORWXY/LB1D1 |
Departure
| Time | 2026-05-04 13:50 |
|---|---|
| Airport | Charles de Gaulle International Airport (LFPG) |
Arrival
| Time | 2026-05-04 20:55 |
|---|---|
| Airport | Maya-Maya International Airport (FCBB) |
| Time | Latitude | Longitude | Altitude | Speed | Heading |
|---|---|---|---|---|---|
| 2026-05-04 13:32 | 49.01551 | 2.51180 | 360 ft | 0 kts | 356° |
| 2026-05-04 13:42 | 49.01526 | 2.51182 | 362 ft | 2 kts | 359° |
| 2026-05-04 13:42 | 49.01510 | 2.51182 | 366 ft | 2 kts | 2° |
| 2026-05-04 13:42 | 49.01493 | 2.51180 | 366 ft | 2 kts | 8° |
| 2026-05-04 13:42 | 49.01483 | 2.51177 | 367 ft | 2 kts | 18° |
| 2026-05-04 13:43 | 49.01469 | 2.51164 | 366 ft | 2 kts | 60° |
| 2026-05-04 13:43 | 49.01465 | 2.51147 | 366 ft | 1 kts | 82° |
| 2026-05-04 13:43 | 49.01465 | 2.51145 | 365 ft | 0 kts | 83° |
| 2026-05-04 13:46 | 49.01465 | 2.51146 | 366 ft | 1 kts | 83° |
| 2026-05-04 13:46 | 49.01468 | 2.51176 | 367 ft | 6 kts | 80° |
| 2026-05-04 13:47 | 49.01484 | 2.51254 | 362 ft | 8 kts | 61° |
| 2026-05-04 13:47 | 49.01527 | 2.51292 | 369 ft | 6 kts | 5° |
| 2026-05-04 13:47 | 49.01580 | 2.51293 | 366 ft | 9 kts | 0° |
| 2026-05-04 13:47 | 49.01648 | 2.51286 | 366 ft | 11 kts | 353° |
| 2026-05-04 13:48 | 49.01730 | 2.51272 | 366 ft | 13 kts | 356° |
| 2026-05-04 13:48 | 49.01827 | 2.51262 | 361 ft | 15 kts | 355° |
| 2026-05-04 13:48 | 49.01931 | 2.51251 | 365 ft | 14 kts | 2° |
| 2026-05-04 13:48 | 49.02020 | 2.51311 | 368 ft | 14 kts | 30° |
| 2026-05-04 13:49 | 49.02067 | 2.51420 | 369 ft | 12 kts | 79° |
| 2026-05-04 13:49 | 49.02078 | 2.51553 | 366 ft | 15 kts | 84° |
| 2026-05-04 13:49 | 49.02105 | 2.52017 | 367 ft | 76 kts | 85° |
| 2026-05-04 13:49 | 49.02162 | 2.53118 | 364 ft | 131 kts | 85° |
| 2026-05-04 13:50 | 49.02247 | 2.54752 | 416 ft | 173 kts | 85° |
| 2026-05-04 13:50 | 49.02330 | 2.56597 | 1068 ft | 169 kts | 85° |
| 2026-05-04 13:50 | 49.02423 | 2.58411 | 1662 ft | 180 kts | 85° |
| 2026-05-04 13:50 | 49.02536 | 2.60412 | 1886 ft | 199 kts | 85° |
| 2026-05-04 13:51 | 49.02657 | 2.62584 | 2182 ft | 211 kts | 85° |
| 2026-05-04 13:51 | 49.02778 | 2.64802 | 2624 ft | 215 kts | 85° |
| 2026-05-04 13:51 | 49.02902 | 2.67093 | 3101 ft | 219 kts | 85° |
| 2026-05-04 13:51 | 49.03031 | 2.69489 | 3408 ft | 236 kts | 85° |
| 2026-05-04 13:52 | 49.03312 | 2.74841 | 4189 ft | 262 kts | 85° |
| 2026-05-04 13:52 | 49.03455 | 2.77628 | 4817 ft | 266 kts | 85° |
| 2026-05-04 13:52 | 49.03600 | 2.80449 | 5440 ft | 268 kts | 85° |
| 2026-05-04 13:53 | 49.03745 | 2.83293 | 6090 ft | 270 kts | 86° |
| 2026-05-04 13:53 | 49.03891 | 2.86162 | 6716 ft | 273 kts | 86° |
| 2026-05-04 13:53 | 49.04038 | 2.89061 | 7325 ft | 276 kts | 86° |
| 2026-05-04 13:54 | 49.04331 | 2.94895 | 8521 ft | 280 kts | 86° |
| 2026-05-04 13:54 | 49.04479 | 2.97864 | 9160 ft | 281 kts | 86° |
| 2026-05-04 13:54 | 49.04201 | 3.03798 | 10212 ft | 291 kts | 114° |
| 2026-05-04 13:55 | 49.02945 | 3.06278 | 10359 ft | 306 kts | 143° |
| 2026-05-04 13:55 | 48.98763 | 3.07256 | 11004 ft | 323 kts | 199° |
| 2026-05-04 13:55 | 48.96860 | 3.05435 | 11551 ft | 327 kts | 221° |
| 2026-05-04 13:56 | 48.95269 | 3.02998 | 12072 ft | 331 kts | 226° |
| 2026-05-04 13:56 | 48.93637 | 3.00505 | 12576 ft | 334 kts | 220° |
| 2026-05-04 13:56 | 48.89723 | 2.96615 | 13610 ft | 339 kts | 210° |
| 2026-05-04 13:57 | 48.87678 | 2.94810 | 14143 ft | 342 kts | 209° |
| 2026-05-04 13:57 | 48.85612 | 2.92999 | 14732 ft | 343 kts | 209° |
| 2026-05-04 13:58 | 48.79334 | 2.87512 | 16546 ft | 350 kts | 209° |
| 2026-05-04 13:58 | 48.75111 | 2.83815 | 17675 ft | 355 kts | 209° |
| 2026-05-04 13:58 | 48.72966 | 2.81941 | 18180 ft | 357 kts | 209° |
| 2026-05-04 13:59 | 48.70810 | 2.80060 | 18588 ft | 358 kts | 209° |
| 2026-05-04 13:59 | 48.68644 | 2.78173 | 18996 ft | 360 kts | 209° |
| 2026-05-04 13:59 | 48.64292 | 2.74387 | 19823 ft | 362 kts | 210° |
| 2026-05-04 14:00 | 48.62101 | 2.72485 | 20235 ft | 363 kts | 210° |
| 2026-05-04 14:00 | 48.57754 | 2.68715 | 21125 ft | 364 kts | 210° |
| 2026-05-04 14:00 | 48.55556 | 2.66810 | 21610 ft | 365 kts | 209° |
| 2026-05-04 14:01 | 48.53343 | 2.64902 | 22154 ft | 368 kts | 209° |
| 2026-05-04 14:01 | 48.51091 | 2.63036 | 22657 ft | 371 kts | 206° |
| 2026-05-04 14:01 | 48.46082 | 2.61282 | 23718 ft | 376 kts | 181° |
| 2026-05-04 14:02 | 48.43456 | 2.61406 | 24195 ft | 379 kts | 179° |
| 2026-05-04 14:02 | 48.40810 | 2.61615 | 24619 ft | 382 kts | 178° |
| 2026-05-04 14:02 | 48.38201 | 2.61836 | 25100 ft | 380 kts | 178° |
| 2026-05-04 14:02 | 48.35556 | 2.62048 | 25499 ft | 381 kts | 178° |
| 2026-05-04 14:03 | 48.32901 | 2.62253 | 25817 ft | 383 kts | 179° |
| 2026-05-04 14:03 | 48.30236 | 2.62523 | 26135 ft | 385 kts | 175° |
| 2026-05-04 14:03 | 48.27605 | 2.63329 | 26439 ft | 389 kts | 165° |
| 2026-05-04 14:03 | 48.25087 | 2.64875 | 26777 ft | 393 kts | 157° |
| 2026-05-04 14:04 | 48.20233 | 2.68605 | 27441 ft | 396 kts | 155° |
| 2026-05-04 14:04 | 48.17779 | 2.70512 | 27800 ft | 397 kts | 156° |
| 2026-05-04 14:04 | 48.15323 | 2.72409 | 28167 ft | 398 kts | 156° |
| 2026-05-04 14:05 | 48.10368 | 2.76210 | 28865 ft | 402 kts | 156° |
| 2026-05-04 14:05 | 48.07818 | 2.77910 | 29223 ft | 401 kts | 163° |
| 2026-05-04 14:05 | 48.05163 | 2.79273 | 29444 ft | 406 kts | 165° |
| 2026-05-04 14:06 | 48.02443 | 2.80518 | 29597 ft | 412 kts | 166° |
| 2026-05-04 14:06 | 47.99708 | 2.81701 | 29745 ft | 417 kts | 167° |
| 2026-05-04 14:06 | 47.96896 | 2.82893 | 29898 ft | 423 kts | 167° |
| 2026-05-04 14:06 | 47.94053 | 2.84101 | 30132 ft | 427 kts | 167° |
| 2026-05-04 14:07 | 47.91189 | 2.85330 | 30370 ft | 429 kts | 167° |
| 2026-05-04 14:07 | 47.88313 | 2.86576 | 30641 ft | 432 kts | 166° |
| 2026-05-04 14:07 | 47.85426 | 2.87834 | 30926 ft | 433 kts | 166° |
| 2026-05-04 14:07 | 47.82528 | 2.89101 | 31205 ft | 435 kts | 166° |
| 2026-05-04 14:08 | 47.79617 | 2.90374 | 31476 ft | 437 kts | 166° |
| 2026-05-04 14:08 | 47.76696 | 2.91651 | 31746 ft | 438 kts | 166° |
| 2026-05-04 14:08 | 47.73762 | 2.92932 | 32046 ft | 440 kts | 167° |
| 2026-05-04 14:08 | 47.70856 | 2.94199 | 32285 ft | 442 kts | 167° |
| 2026-05-04 14:09 | 47.64935 | 2.96771 | 32764 ft | 445 kts | 167° |
| 2026-05-04 14:09 | 47.61961 | 2.98061 | 32992 ft | 446 kts | 167° |
| 2026-05-04 14:10 | 47.55975 | 3.00651 | 33452 ft | 449 kts | 167° |
| 2026-05-04 14:10 | 47.52968 | 3.01951 | 33654 ft | 451 kts | 167° |
| 2026-05-04 14:10 | 47.50260 | 3.03120 | 33911 ft | 451 kts | 167° |
| 2026-05-04 14:10 | 47.47250 | 3.04419 | 34191 ft | 450 kts | 167° |
| 2026-05-04 14:11 | 47.44240 | 3.05716 | 34435 ft | 451 kts | 167° |
| 2026-05-04 14:11 | 47.38247 | 3.08293 | 34830 ft | 452 kts | 167° |
| 2026-05-04 14:11 | 47.35221 | 3.09591 | 35032 ft | 453 kts | 167° |
| 2026-05-04 14:12 | 47.32188 | 3.10892 | 35185 ft | 455 kts | 167° |
| 2026-05-04 14:12 | 47.29147 | 3.12193 | 35377 ft | 456 kts | 167° |
| 2026-05-04 14:12 | 47.23049 | 3.14798 | 35827 ft | 456 kts | 167° |
| 2026-05-04 14:13 | 47.19997 | 3.16100 | 36004 ft | 457 kts | 167° |
| 2026-05-04 14:13 | 47.16981 | 3.17385 | 36190 ft | 458 kts | 167° |
| 2026-05-04 14:13 | 47.13922 | 3.18686 | 36361 ft | 458 kts | 167° |
| 2026-05-04 14:13 | 47.10858 | 3.19990 | 36549 ft | 459 kts | 167° |
| 2026-05-04 14:14 | 47.07786 | 3.21294 | 36731 ft | 459 kts | 167° |
| 2026-05-04 14:14 | 47.01605 | 3.23703 | 36939 ft | 458 kts | 173° |
| 2026-05-04 14:14 | 46.98470 | 3.24526 | 36939 ft | 457 kts | 174° |
| 2026-05-04 14:15 | 46.85946 | 3.27343 | 36946 ft | 457 kts | 175° |
| 2026-05-04 14:16 | 46.76542 | 3.29408 | 36947 ft | 455 kts | 175° |
| 2026-05-04 14:17 | 46.67140 | 3.31489 | 36952 ft | 456 kts | 175° |
| 2026-05-04 14:18 | 46.57780 | 3.33558 | 36950 ft | 456 kts | 175° |
| 2026-05-04 14:19 | 46.45240 | 3.36317 | 36944 ft | 456 kts | 175° |
| 2026-05-04 14:19 | 46.38973 | 3.37690 | 36945 ft | 456 kts | 175° |
| 2026-05-04 14:20 | 46.32698 | 3.39063 | 36937 ft | 456 kts | 175° |
| 2026-05-04 14:20 | 46.26468 | 3.40423 | 36940 ft | 456 kts | 175° |
| 2026-05-04 14:21 | 46.17061 | 3.42469 | 36943 ft | 456 kts | 175° |
| 2026-05-04 14:21 | 46.10790 | 3.43830 | 36932 ft | 456 kts | 175° |
| 2026-05-04 14:22 | 46.04520 | 3.45187 | 36941 ft | 455 kts | 175° |
| 2026-05-04 14:22 | 45.98295 | 3.46531 | 36937 ft | 455 kts | 175° |
| 2026-05-04 14:23 | 45.88898 | 3.48628 | 36938 ft | 457 kts | 172° |
| 2026-05-04 14:24 | 45.82841 | 3.51613 | 36944 ft | 465 kts | 160° |
| 2026-05-04 14:24 | 45.77046 | 3.55625 | 36947 ft | 467 kts | 158° |
| 2026-05-04 14:25 | 45.71256 | 3.59839 | 36937 ft | 467 kts | 158° |
| 2026-05-04 14:25 | 45.62563 | 3.66112 | 36959 ft | 466 kts | 159° |
| 2026-05-04 14:26 | 45.56759 | 3.70245 | 36960 ft | 466 kts | 159° |
| 2026-05-04 14:26 | 45.50990 | 3.74337 | 36949 ft | 466 kts | 159° |
| 2026-05-04 14:27 | 45.45181 | 3.78448 | 36964 ft | 466 kts | 159° |
| 2026-05-04 14:27 | 45.39371 | 3.82552 | 36963 ft | 466 kts | 159° |
| 2026-05-04 14:28 | 45.33558 | 3.86650 | 36965 ft | 466 kts | 159° |
| 2026-05-04 14:28 | 45.27736 | 3.90746 | 36983 ft | 467 kts | 160° |
| 2026-05-04 14:29 | 45.16118 | 3.98866 | 36986 ft | 466 kts | 161° |
| 2026-05-04 14:30 | 45.10074 | 4.01897 | 36991 ft | 459 kts | 169° |
| 2026-05-04 14:31 | 45.00890 | 4.05635 | 36992 ft | 457 kts | 170° |
| 2026-05-04 14:32 | 44.88677 | 4.10488 | 36994 ft | 457 kts | 170° |
| 2026-05-04 14:32 | 44.82554 | 4.12939 | 37004 ft | 457 kts | 170° |
| 2026-05-04 14:33 | 44.76480 | 4.15368 | 37009 ft | 457 kts | 170° |
| 2026-05-04 14:33 | 44.70363 | 4.17808 | 37008 ft | 457 kts | 170° |
| 2026-05-04 14:34 | 44.64241 | 4.20245 | 36999 ft | 457 kts | 170° |
| 2026-05-04 14:34 | 44.58104 | 4.22679 | 37010 ft | 459 kts | 170° |
| 2026-05-04 14:35 | 44.52005 | 4.25097 | 37000 ft | 458 kts | 170° |
| 2026-05-04 14:35 | 44.45871 | 4.27523 | 37016 ft | 458 kts | 171° |
| 2026-05-04 14:36 | 44.39743 | 4.29939 | 37009 ft | 458 kts | 171° |
| 2026-05-04 14:36 | 44.33614 | 4.32352 | 36993 ft | 458 kts | 171° |
| 2026-05-04 14:37 | 44.27516 | 4.34746 | 36992 ft | 458 kts | 171° |
| 2026-05-04 14:37 | 44.21383 | 4.37150 | 36998 ft | 458 kts | 171° |
| 2026-05-04 14:38 | 44.15249 | 4.39549 | 36983 ft | 458 kts | 171° |
| 2026-05-04 14:38 | 44.09116 | 4.41943 | 36992 ft | 458 kts | 171° |
| 2026-05-04 14:39 | 44.02978 | 4.44332 | 36989 ft | 458 kts | 171° |
| 2026-05-04 14:39 | 43.96878 | 4.46701 | 36987 ft | 458 kts | 171° |
| 2026-05-04 14:40 | 43.87671 | 4.50270 | 36991 ft | 458 kts | 171° |
| 2026-05-04 14:40 | 43.81535 | 4.52641 | 36993 ft | 458 kts | 171° |
| 2026-05-04 14:41 | 43.75393 | 4.55009 | 36992 ft | 458 kts | 171° |
| 2026-05-04 14:42 | 43.63161 | 4.59711 | 36984 ft | 458 kts | 171° |
| 2026-05-04 14:42 | 43.57024 | 4.62062 | 36964 ft | 458 kts | 171° |
| 2026-05-04 14:43 | 43.50879 | 4.64412 | 36960 ft | 458 kts | 171° |
| 2026-05-04 14:43 | 43.44786 | 4.66738 | 36958 ft | 457 kts | 171° |
| 2026-05-04 14:44 | 43.38656 | 4.69072 | 36976 ft | 457 kts | 171° |
| 2026-05-04 14:44 | 43.32520 | 4.71403 | 36953 ft | 457 kts | 172° |
| 2026-05-04 14:45 | 43.26364 | 4.73369 | 36967 ft | 451 kts | 177° |
| 2026-05-04 14:45 | 43.20185 | 4.74734 | 36959 ft | 449 kts | 178° |
| 2026-05-04 14:46 | 43.14041 | 4.75985 | 36956 ft | 449 kts | 178° |
| 2026-05-04 14:46 | 43.07857 | 4.77245 | 36957 ft | 450 kts | 178° |
| 2026-05-04 14:47 | 43.01734 | 4.79405 | 36951 ft | 457 kts | 170° |
| 2026-05-04 14:47 | 42.95664 | 4.82071 | 36952 ft | 459 kts | 169° |
| 2026-05-04 14:48 | 42.89641 | 4.84799 | 36937 ft | 459 kts | 169° |
| 2026-05-04 14:48 | 42.83572 | 4.87530 | 36947 ft | 459 kts | 169° |
| 2026-05-04 14:49 | 42.77503 | 4.90235 | 36956 ft | 459 kts | 169° |
| 2026-05-04 14:49 | 42.71428 | 4.92929 | 36952 ft | 459 kts | 169° |
| 2026-05-04 14:50 | 42.65357 | 4.95615 | 36933 ft | 459 kts | 170° |
| 2026-05-04 14:50 | 42.59312 | 4.98284 | 36952 ft | 460 kts | 170° |
| 2026-05-04 14:51 | 42.53214 | 5.00972 | 36952 ft | 461 kts | 170° |
| 2026-05-04 14:51 | 42.47113 | 5.03659 | 36955 ft | 461 kts | 170° |
| 2026-05-04 14:52 | 42.41010 | 5.06342 | 36958 ft | 461 kts | 170° |
| 2026-05-04 14:52 | 42.34944 | 5.09001 | 36957 ft | 461 kts | 170° |
| 2026-05-04 14:53 | 42.28837 | 5.11670 | 36934 ft | 461 kts | 170° |
| 2026-05-04 14:53 | 42.22725 | 5.14335 | 36951 ft | 462 kts | 170° |
| 2026-05-04 14:54 | 42.16602 | 5.17001 | 36949 ft | 462 kts | 170° |
| 2026-05-04 14:54 | 42.10525 | 5.19642 | 36958 ft | 462 kts | 170° |
| 2026-05-04 14:55 | 42.04403 | 5.22298 | 36952 ft | 462 kts | 170° |
| 2026-05-04 14:55 | 41.98280 | 5.24947 | 36952 ft | 462 kts | 170° |
| 2026-05-04 14:56 | 41.92161 | 5.27590 | 36945 ft | 462 kts | 170° |
| 2026-05-04 14:56 | 41.86079 | 5.30211 | 36937 ft | 462 kts | 170° |
| 2026-05-04 14:57 | 41.79960 | 5.32844 | 36951 ft | 462 kts | 170° |
| 2026-05-04 14:57 | 41.73834 | 5.35474 | 36960 ft | 463 kts | 169° |
| 2026-05-04 14:58 | 41.67687 | 5.38070 | 36943 ft | 461 kts | 172° |
| 2026-05-04 14:58 | 41.61508 | 5.39969 | 36951 ft | 458 kts | 175° |
| 2026-05-04 14:59 | 41.55284 | 5.41687 | 36957 ft | 457 kts | 176° |
| 2026-05-04 15:00 | 41.45949 | 5.44206 | 36948 ft | 456 kts | 175° |
| 2026-05-04 15:00 | 41.39728 | 5.45894 | 36953 ft | 456 kts | 175° |
| 2026-05-04 15:01 | 41.30446 | 5.48417 | 36952 ft | 456 kts | 175° |
| 2026-05-04 15:01 | 41.24226 | 5.50105 | 36952 ft | 456 kts | 175° |
| 2026-05-04 15:02 | 41.18010 | 5.51787 | 36945 ft | 456 kts | 175° |
| 2026-05-04 15:02 | 41.11797 | 5.53467 | 36950 ft | 455 kts | 175° |
| 2026-05-04 15:03 | 41.05633 | 5.55128 | 36953 ft | 455 kts | 175° |
| 2026-05-04 15:03 | 40.99422 | 5.56799 | 36932 ft | 455 kts | 175° |
| 2026-05-04 15:04 | 40.93213 | 5.58467 | 36948 ft | 455 kts | 175° |
| 2026-05-04 15:04 | 40.87005 | 5.60131 | 36949 ft | 455 kts | 175° |
| 2026-05-04 15:05 | 40.80836 | 5.61782 | 36952 ft | 455 kts | 175° |
| 2026-05-04 15:05 | 40.74628 | 5.63440 | 36963 ft | 456 kts | 176° |
| 2026-05-04 15:06 | 40.68411 | 5.65097 | 36961 ft | 456 kts | 176° |
| 2026-05-04 15:07 | 40.59082 | 5.67578 | 36960 ft | 456 kts | 176° |
| 2026-05-04 15:07 | 40.52906 | 5.69216 | 36962 ft | 456 kts | 176° |
| 2026-05-04 15:08 | 40.46683 | 5.70864 | 36964 ft | 456 kts | 176° |
| 2026-05-04 15:08 | 40.40462 | 5.72509 | 36963 ft | 457 kts | 176° |
| 2026-05-04 15:09 | 40.34225 | 5.74153 | 36965 ft | 457 kts | 176° |
| 2026-05-04 15:09 | 40.27988 | 5.75795 | 36966 ft | 458 kts | 176° |
| 2026-05-04 15:10 | 40.18657 | 5.78246 | 36966 ft | 458 kts | 176° |
| 2026-05-04 15:11 | 40.09287 | 5.80701 | 36962 ft | 458 kts | 176° |
| 2026-05-04 15:11 | 40.03022 | 5.82337 | 36972 ft | 460 kts | 176° |
| 2026-05-04 15:12 | 39.96788 | 5.83963 | 36975 ft | 460 kts | 176° |
| 2026-05-04 15:12 | 39.90513 | 5.85597 | 36972 ft | 460 kts | 176° |
| 2026-05-04 15:13 | 39.84229 | 5.87230 | 36977 ft | 462 kts | 176° |
| 2026-05-04 15:13 | 39.77906 | 5.88867 | 36976 ft | 464 kts | 176° |
| 2026-05-04 15:14 | 39.71617 | 5.90497 | 36975 ft | 464 kts | 176° |
| 2026-05-04 15:14 | 39.65284 | 5.92135 | 36961 ft | 464 kts | 176° |
| 2026-05-04 15:15 | 39.58937 | 5.93772 | 36984 ft | 465 kts | 176° |
| 2026-05-04 15:15 | 39.52582 | 5.95408 | 36985 ft | 466 kts | 176° |
| 2026-05-04 15:16 | 39.43090 | 5.97846 | 36988 ft | 466 kts | 176° |
| 2026-05-04 15:17 | 39.33549 | 6.00290 | 36991 ft | 466 kts | 176° |
| 2026-05-04 15:17 | 39.24010 | 6.02727 | 36990 ft | 466 kts | 176° |
| 2026-05-04 15:18 | 39.17696 | 6.04336 | 36990 ft | 466 kts | 176° |
| 2026-05-04 15:19 | 39.08136 | 6.06766 | 36992 ft | 467 kts | 176° |
| 2026-05-04 15:19 | 38.98574 | 6.09186 | 36988 ft | 467 kts | 176° |
| 2026-05-04 15:20 | 38.92195 | 6.10518 | 37002 ft | 468 kts | 179° |
| 2026-05-04 15:20 | 38.85738 | 6.11721 | 37004 ft | 469 kts | 179° |
| 2026-05-04 15:21 | 38.79281 | 6.12954 | 37004 ft | 469 kts | 178° |
| 2026-05-04 15:22 | 38.69647 | 6.14852 | 37013 ft | 469 kts | 178° |
| 2026-05-04 15:22 | 38.59980 | 6.16765 | 37002 ft | 469 kts | 178° |
| 2026-05-04 15:23 | 38.53535 | 6.18035 | 37004 ft | 469 kts | 178° |
| 2026-05-04 15:23 | 38.47090 | 6.19302 | 37003 ft | 468 kts | 178° |
| 2026-05-04 15:24 | 38.34266 | 6.21817 | 37016 ft | 468 kts | 179° |
| 2026-05-04 15:25 | 38.27829 | 6.23075 | 37005 ft | 468 kts | 179° |
| 2026-05-04 15:26 | 38.18178 | 6.24958 | 37016 ft | 468 kts | 179° |
| 2026-05-04 15:26 | 38.08569 | 6.26828 | 37013 ft | 468 kts | 179° |
| 2026-05-04 15:27 | 37.98914 | 6.28702 | 37009 ft | 469 kts | 179° |
| 2026-05-04 15:28 | 37.89216 | 6.30577 | 37011 ft | 470 kts | 179° |
| 2026-05-04 15:29 | 37.79561 | 6.32443 | 37007 ft | 470 kts | 179° |
| 2026-05-04 15:30 | 37.56856 | 6.36807 | 37005 ft | 472 kts | 179° |
| 2026-05-04 15:31 | 37.47155 | 6.38662 | 36999 ft | 473 kts | 178° |
| 2026-05-04 15:32 | 37.30881 | 6.41766 | 37000 ft | 473 kts | 178° |
| 2026-05-04 15:34 | 37.14616 | 6.44853 | 36991 ft | 475 kts | 178° |
| 2026-05-04 15:34 | 37.04820 | 6.46707 | 36960 ft | 474 kts | 178° |
| 2026-05-04 15:35 | 36.95054 | 6.48550 | 36987 ft | 476 kts | 178° |
| 2026-05-04 15:36 | 36.85232 | 6.50397 | 36983 ft | 476 kts | 178° |
| 2026-05-04 15:36 | 36.78680 | 6.51628 | 36979 ft | 477 kts | 178° |
| 2026-05-04 15:37 | 36.72159 | 6.52849 | 36981 ft | 478 kts | 178° |
| 2026-05-04 15:37 | 36.65584 | 6.54081 | 36977 ft | 478 kts | 178° |
| 2026-05-04 15:38 | 36.59009 | 6.55310 | 36987 ft | 478 kts | 178° |
| 2026-05-04 15:38 | 36.52437 | 6.56535 | 37024 ft | 478 kts | 178° |
| 2026-05-04 15:39 | 36.45861 | 6.57760 | 37047 ft | 478 kts | 178° |
| 2026-05-04 15:40 | 36.36034 | 6.59586 | 37075 ft | 478 kts | 178° |
| 2026-05-04 15:40 | 36.29453 | 6.60701 | 37068 ft | 474 kts | 182° |
| 2026-05-04 15:41 | 36.22875 | 6.61061 | 37074 ft | 473 kts | 184° |
| 2026-05-04 15:41 | 36.16304 | 6.61259 | 37061 ft | 472 kts | 185° |
| 2026-05-04 15:42 | 36.09780 | 6.61429 | 37044 ft | 472 kts | 185° |
| 2026-05-04 15:42 | 36.03207 | 6.61612 | 37025 ft | 473 kts | 185° |
| 2026-05-04 15:43 | 35.96624 | 6.61805 | 37008 ft | 473 kts | 185° |
| 2026-05-04 15:43 | 35.90037 | 6.62001 | 36996 ft | 473 kts | 185° |
| 2026-05-04 15:44 | 35.83498 | 6.62196 | 36997 ft | 473 kts | 185° |
| 2026-05-04 15:44 | 35.76928 | 6.62391 | 36999 ft | 472 kts | 185° |
| 2026-05-04 15:45 | 35.70354 | 6.62584 | 36998 ft | 473 kts | 185° |
| 2026-05-04 15:45 | 35.63764 | 6.62778 | 37004 ft | 474 kts | 185° |
| 2026-05-04 15:46 | 35.57219 | 6.62972 | 37004 ft | 474 kts | 185° |
| 2026-05-04 15:46 | 35.50619 | 6.63164 | 37011 ft | 475 kts | 184° |
| 2026-05-04 15:47 | 35.44008 | 6.63357 | 37021 ft | 475 kts | 184° |
| 2026-05-04 15:47 | 35.37392 | 6.63552 | 37020 ft | 475 kts | 184° |
| 2026-05-04 15:48 | 35.30828 | 6.63746 | 37015 ft | 475 kts | 184° |
| 2026-05-04 15:48 | 35.20878 | 6.64037 | 37037 ft | 478 kts | 184° |
| 2026-05-04 15:49 | 35.14224 | 6.64229 | 37040 ft | 478 kts | 184° |
| 2026-05-04 15:49 | 35.07613 | 6.64421 | 37030 ft | 478 kts | 184° |
| 2026-05-04 15:50 | 35.00956 | 6.64615 | 37039 ft | 479 kts | 184° |
| 2026-05-04 15:50 | 34.94291 | 6.64808 | 37015 ft | 480 kts | 184° |
| 2026-05-04 15:51 | 34.87614 | 6.65006 | 37021 ft | 480 kts | 184° |
| 2026-05-04 15:51 | 34.80944 | 6.65198 | 36995 ft | 480 kts | 184° |
| 2026-05-04 15:52 | 34.74312 | 6.65390 | 37001 ft | 480 kts | 184° |
| 2026-05-04 15:52 | 34.67635 | 6.65591 | 37000 ft | 480 kts | 184° |
| 2026-05-04 15:53 | 34.60952 | 6.65794 | 36990 ft | 480 kts | 184° |
| 2026-05-04 15:53 | 34.54275 | 6.65995 | 36975 ft | 480 kts | 184° |
| 2026-05-04 15:54 | 34.47584 | 6.66195 | 36986 ft | 481 kts | 184° |
| 2026-05-04 15:54 | 34.40933 | 6.66394 | 36981 ft | 481 kts | 184° |
| 2026-05-04 15:55 | 34.34232 | 6.66595 | 36983 ft | 481 kts | 184° |
| 2026-05-04 15:55 | 34.27536 | 6.66795 | 36970 ft | 481 kts | 185° |
| 2026-05-04 15:56 | 34.20834 | 6.66995 | 36978 ft | 482 kts | 185° |
| 2026-05-04 15:56 | 34.14178 | 6.67193 | 36979 ft | 482 kts | 185° |
| 2026-05-04 15:57 | 34.07477 | 6.67391 | 36978 ft | 482 kts | 185° |
| 2026-05-04 15:57 | 34.00775 | 6.67590 | 36982 ft | 482 kts | 185° |
| 2026-05-04 15:58 | 33.94068 | 6.67788 | 36978 ft | 482 kts | 185° |
| 2026-05-04 15:58 | 33.87366 | 6.67986 | 36987 ft | 482 kts | 185° |
| 2026-05-04 15:59 | 33.80708 | 6.68183 | 36980 ft | 482 kts | 185° |
| 2026-05-04 15:59 | 33.75093 | 6.68348 | 36971 ft | 482 kts | 185° |
| 2026-05-04 16:00 | 33.67272 | 6.68578 | 37010 ft | 484 kts | 185° |
| 2026-05-04 16:00 | 33.60546 | 6.68769 | 37016 ft | 484 kts | 185° |
| 2026-05-04 16:01 | 33.53858 | 6.68968 | 37018 ft | 484 kts | 185° |
| 2026-05-04 16:01 | 33.47121 | 6.69168 | 37017 ft | 485 kts | 185° |
| 2026-05-04 16:02 | 33.40366 | 6.69366 | 37015 ft | 485 kts | 185° |
| 2026-05-04 16:03 | 33.30237 | 6.69662 | 37000 ft | 486 kts | 185° |
| 2026-05-04 16:03 | 33.23525 | 6.69857 | 36990 ft | 486 kts | 185° |
| 2026-05-04 16:04 | 33.16730 | 6.70052 | 36976 ft | 489 kts | 185° |
| 2026-05-04 16:04 | 33.06576 | 6.70351 | 36977 ft | 485 kts | 185° |
| 2026-05-04 16:05 | 32.99822 | 6.70546 | 36977 ft | 486 kts | 185° |
| 2026-05-04 16:06 | 32.89748 | 6.70837 | 36975 ft | 485 kts | 185° |
| 2026-05-04 16:07 | 32.76255 | 6.71225 | 36968 ft | 485 kts | 185° |
| 2026-05-04 16:08 | 32.62791 | 6.71611 | 36969 ft | 486 kts | 185° |
| 2026-05-04 16:09 | 32.45885 | 6.72096 | 36969 ft | 486 kts | 185° |
| 2026-05-04 16:10 | 32.32382 | 6.72480 | 36966 ft | 488 kts | 185° |
| 2026-05-04 16:11 | 32.19955 | 6.72835 | 36961 ft | 488 kts | 185° |
| 2026-05-04 16:12 | 31.99661 | 6.73411 | 36962 ft | 487 kts | 185° |
| 2026-05-04 16:13 | 31.85002 | 6.73825 | 36952 ft | 488 kts | 185° |
| 2026-05-04 16:14 | 31.72599 | 6.74174 | 36946 ft | 488 kts | 185° |
| 2026-05-04 16:16 | 31.55642 | 6.74651 | 36952 ft | 488 kts | 185° |
| 2026-05-04 16:17 | 31.38728 | 6.75124 | 36949 ft | 488 kts | 185° |
| 2026-05-04 16:18 | 31.25150 | 6.75502 | 36946 ft | 488 kts | 185° |
| 2026-05-04 16:19 | 31.08212 | 6.75973 | 36941 ft | 488 kts | 185° |
| 2026-05-04 16:20 | 30.91230 | 6.76443 | 36941 ft | 488 kts | 185° |
| 2026-05-04 16:22 | 30.74294 | 6.76911 | 36935 ft | 489 kts | 185° |
| 2026-05-04 16:23 | 30.53904 | 6.77471 | 36931 ft | 490 kts | 185° |
| 2026-05-04 16:25 | 30.33465 | 6.78031 | 36927 ft | 490 kts | 185° |
| 2026-05-04 16:26 | 30.09647 | 6.78681 | 36926 ft | 491 kts | 186° |
| 2026-05-04 16:28 | 29.92620 | 6.79144 | 36902 ft | 491 kts | 186° |
| 2026-05-04 16:29 | 29.68649 | 6.79791 | 36909 ft | 492 kts | 186° |
| 2026-05-04 16:31 | 29.51560 | 6.80251 | 36910 ft | 493 kts | 186° |
| 2026-05-04 16:32 | 29.31051 | 6.80802 | 36904 ft | 493 kts | 187° |
| 2026-05-04 16:33 | 29.17348 | 6.81167 | 36894 ft | 493 kts | 187° |
| 2026-05-04 16:34 | 29.07066 | 6.81442 | 36865 ft | 493 kts | 187° |
| 2026-05-04 16:35 | 28.86489 | 6.81988 | 36883 ft | 494 kts | 187° |
| 2026-05-04 16:36 | 28.76167 | 6.82264 | 36874 ft | 495 kts | 187° |
| 2026-05-04 16:37 | 28.65885 | 6.82534 | 36877 ft | 495 kts | 187° |
| 2026-05-04 16:38 | 28.52099 | 6.82898 | 36875 ft | 496 kts | 187° |
| 2026-05-04 16:39 | 28.34902 | 6.83352 | 36862 ft | 496 kts | 187° |
| 2026-05-04 16:40 | 28.21112 | 6.83713 | 36866 ft | 495 kts | 188° |
| 2026-05-04 16:41 | 28.14194 | 6.84152 | 36861 ft | 507 kts | 179° |
| 2026-05-04 16:41 | 28.03851 | 6.87700 | 36855 ft | 524 kts | 167° |
| 2026-05-04 16:43 | 27.86821 | 6.94887 | 36839 ft | 524 kts | 167° |
| 2026-05-04 16:43 | 27.76577 | 6.99131 | 36850 ft | 522 kts | 167° |
| 2026-05-04 16:45 | 27.56150 | 7.07536 | 36847 ft | 522 kts | 167° |
| 2026-05-04 16:46 | 27.39145 | 7.14514 | 36840 ft | 522 kts | 167° |
| 2026-05-04 16:47 | 27.25493 | 7.20101 | 36821 ft | 522 kts | 167° |
| 2026-05-04 16:48 | 27.11884 | 7.25652 | 36826 ft | 522 kts | 167° |
| 2026-05-04 16:49 | 26.98226 | 7.31213 | 36798 ft | 522 kts | 167° |
| 2026-05-04 16:50 | 26.84593 | 7.36746 | 36816 ft | 523 kts | 167° |
| 2026-05-04 16:51 | 26.74338 | 7.40900 | 36830 ft | 523 kts | 167° |
| 2026-05-04 16:52 | 26.60651 | 7.46429 | 36830 ft | 524 kts | 166° |
| 2026-05-04 16:53 | 26.50414 | 7.50557 | 36829 ft | 524 kts | 166° |
| 2026-05-04 16:54 | 26.36708 | 7.56073 | 36839 ft | 524 kts | 166° |
| 2026-05-04 16:55 | 26.16170 | 7.64309 | 36854 ft | 525 kts | 166° |
| 2026-05-04 16:56 | 25.98988 | 7.71179 | 36862 ft | 525 kts | 166° |
| 2026-05-04 16:57 | 25.88742 | 7.75320 | 36866 ft | 525 kts | 166° |
| 2026-05-04 16:58 | 25.75022 | 7.80873 | 36872 ft | 525 kts | 166° |
| 2026-05-04 17:00 | 25.54534 | 7.89123 | 36885 ft | 522 kts | 166° |
| 2026-05-04 17:01 | 25.37448 | 7.95980 | 36890 ft | 522 kts | 166° |
| 2026-05-04 17:02 | 25.23837 | 8.01428 | 36898 ft | 522 kts | 166° |
| 2026-05-04 17:03 | 25.13596 | 8.05518 | 36897 ft | 522 kts | 166° |
| 2026-05-04 17:03 | 25.03364 | 8.09597 | 36891 ft | 520 kts | 166° |
| 2026-05-04 17:04 | 24.89803 | 8.14993 | 36876 ft | 520 kts | 166° |
| 2026-05-04 17:05 | 24.76196 | 8.20394 | 36844 ft | 519 kts | 166° |
| 2026-05-04 17:06 | 24.66053 | 8.24413 | 36862 ft | 519 kts | 166° |
| 2026-05-04 17:07 | 24.57015 | 8.27987 | 36861 ft | 518 kts | 166° |
| 2026-05-04 17:07 | 24.49079 | 8.31121 | 36854 ft | 518 kts | 166° |
| 2026-05-04 17:08 | 24.38945 | 8.35117 | 36852 ft | 519 kts | 166° |
| 2026-05-04 17:09 | 24.32140 | 8.37796 | 36845 ft | 520 kts | 166° |
| 2026-05-04 17:09 | 24.25330 | 8.40474 | 36841 ft | 520 kts | 166° |
| 2026-05-04 17:10 | 24.08065 | 8.47245 | 36846 ft | 533 kts | 166° |
| 2026-05-04 17:11 | 24.01082 | 8.49983 | 36824 ft | 533 kts | 166° |
| 2026-05-04 17:12 | 23.90601 | 8.54086 | 36838 ft | 533 kts | 166° |
| 2026-05-04 17:13 | 23.73203 | 8.60876 | 36832 ft | 532 kts | 166° |
| 2026-05-04 17:14 | 23.59261 | 8.66303 | 36836 ft | 532 kts | 166° |
| 2026-05-04 17:15 | 23.48852 | 8.70346 | 36830 ft | 532 kts | 166° |
| 2026-05-04 17:16 | 23.34909 | 8.75752 | 36839 ft | 533 kts | 166° |
| 2026-05-04 17:17 | 23.20932 | 8.81159 | 36837 ft | 533 kts | 166° |
| 2026-05-04 17:18 | 23.07010 | 8.86534 | 36837 ft | 533 kts | 166° |
| 2026-05-04 17:19 | 22.93031 | 8.91917 | 36838 ft | 533 kts | 166° |
| 2026-05-04 17:20 | 22.79097 | 8.97272 | 36834 ft | 533 kts | 166° |
| 2026-05-04 17:20 | 22.68612 | 9.01294 | 36827 ft | 533 kts | 166° |
| 2026-05-04 17:21 | 22.54673 | 9.06631 | 36824 ft | 533 kts | 166° |
| 2026-05-04 17:22 | 22.47675 | 9.09305 | 36819 ft | 533 kts | 166° |
| 2026-05-04 17:23 | 22.33674 | 9.14648 | 36820 ft | 534 kts | 166° |
| 2026-05-04 17:24 | 22.23217 | 9.18632 | 36820 ft | 534 kts | 166° |
| 2026-05-04 17:25 | 22.09236 | 9.23948 | 36820 ft | 532 kts | 166° |
| 2026-05-04 17:26 | 21.95327 | 9.29229 | 36822 ft | 532 kts | 165° |
| 2026-05-04 17:27 | 21.78373 | 9.37529 | 36821 ft | 535 kts | 160° |
| 2026-05-04 17:28 | 21.64948 | 9.44329 | 36811 ft | 535 kts | 160° |
| 2026-05-04 17:29 | 21.44708 | 9.54510 | 36815 ft | 536 kts | 160° |
| 2026-05-04 17:31 | 21.27865 | 9.62959 | 36821 ft | 536 kts | 160° |
| 2026-05-04 17:32 | 21.11016 | 9.71391 | 36815 ft | 536 kts | 160° |
| 2026-05-04 17:33 | 20.97500 | 9.78139 | 36813 ft | 536 kts | 160° |
| 2026-05-04 17:34 | 20.84029 | 9.84851 | 36810 ft | 536 kts | 160° |
| 2026-05-04 17:35 | 20.67091 | 9.93272 | 36815 ft | 537 kts | 160° |
| 2026-05-04 17:36 | 20.60311 | 9.96637 | 36816 ft | 537 kts | 160° |
| 2026-05-04 17:36 | 20.53576 | 9.99977 | 36815 ft | 537 kts | 160° |
| 2026-05-04 17:37 | 20.46793 | 10.03337 | 36814 ft | 537 kts | 160° |
| 2026-05-04 17:37 | 20.40015 | 10.06691 | 36815 ft | 537 kts | 160° |
| 2026-05-04 17:38 | 20.33237 | 10.10042 | 36817 ft | 537 kts | 160° |
| 2026-05-04 17:38 | 20.26508 | 10.13365 | 36818 ft | 537 kts | 160° |
| 2026-05-04 17:39 | 20.16340 | 10.18381 | 36805 ft | 537 kts | 161° |
| 2026-05-04 17:39 | 20.09568 | 10.21718 | 36815 ft | 536 kts | 161° |
| 2026-05-04 17:40 | 20.02844 | 10.25027 | 36815 ft | 536 kts | 161° |
| 2026-05-04 17:40 | 19.96072 | 10.28357 | 36816 ft | 536 kts | 161° |
| 2026-05-04 17:41 | 19.89297 | 10.31685 | 36813 ft | 536 kts | 161° |
| 2026-05-04 17:41 | 19.82528 | 10.35008 | 36803 ft | 536 kts | 161° |
| 2026-05-04 17:42 | 19.75762 | 10.38327 | 36810 ft | 535 kts | 161° |
| 2026-05-04 17:42 | 19.69046 | 10.41617 | 36810 ft | 535 kts | 161° |
| 2026-05-04 17:43 | 19.62280 | 10.44928 | 36807 ft | 535 kts | 161° |
| 2026-05-04 17:43 | 19.55519 | 10.48234 | 36806 ft | 535 kts | 161° |
| 2026-05-04 17:44 | 19.48798 | 10.51517 | 36792 ft | 535 kts | 161° |
| 2026-05-04 17:44 | 19.42045 | 10.54815 | 36807 ft | 534 kts | 161° |
| 2026-05-04 17:45 | 19.35300 | 10.58104 | 36803 ft | 534 kts | 161° |
| 2026-05-04 17:45 | 19.28557 | 10.61388 | 36804 ft | 534 kts | 161° |
| 2026-05-04 17:46 | 19.21855 | 10.64650 | 36804 ft | 534 kts | 161° |
| 2026-05-04 17:46 | 19.15110 | 10.67930 | 36804 ft | 534 kts | 161° |
| 2026-05-04 17:47 | 19.08373 | 10.71204 | 36804 ft | 532 kts | 161° |
| 2026-05-04 17:47 | 19.01649 | 10.74468 | 36801 ft | 531 kts | 161° |
| 2026-05-04 17:48 | 18.94934 | 10.77725 | 36801 ft | 531 kts | 161° |
| 2026-05-04 17:48 | 18.88259 | 10.80958 | 36801 ft | 531 kts | 161° |
| 2026-05-04 17:49 | 18.81541 | 10.84211 | 36804 ft | 531 kts | 161° |
| 2026-05-04 17:49 | 18.74825 | 10.87460 | 36798 ft | 530 kts | 161° |
| 2026-05-04 17:50 | 18.68120 | 10.90700 | 36798 ft | 530 kts | 161° |
| 2026-05-04 17:50 | 18.61465 | 10.93913 | 36799 ft | 530 kts | 161° |
| 2026-05-04 17:51 | 18.54764 | 10.97146 | 36799 ft | 530 kts | 161° |
| 2026-05-04 17:51 | 18.48061 | 11.00377 | 36799 ft | 530 kts | 161° |
| 2026-05-04 17:52 | 18.41361 | 11.03603 | 36804 ft | 529 kts | 161° |
| 2026-05-04 17:52 | 18.34718 | 11.06799 | 36798 ft | 528 kts | 161° |
| 2026-05-04 17:53 | 18.28031 | 11.10014 | 36803 ft | 528 kts | 161° |
| 2026-05-04 17:53 | 18.21342 | 11.13226 | 36798 ft | 528 kts | 161° |
| 2026-05-04 17:54 | 18.14655 | 11.16435 | 36791 ft | 528 kts | 161° |
| 2026-05-04 17:54 | 18.07966 | 11.19641 | 36785 ft | 528 kts | 161° |
| 2026-05-04 17:55 | 18.01326 | 11.22822 | 36803 ft | 528 kts | 161° |
| 2026-05-04 17:55 | 17.94642 | 11.26023 | 36800 ft | 528 kts | 161° |
| 2026-05-04 17:56 | 17.87955 | 11.29221 | 36801 ft | 528 kts | 161° |
| 2026-05-04 17:56 | 17.81275 | 11.32414 | 36797 ft | 527 kts | 160° |
| 2026-05-04 17:57 | 17.74649 | 11.35578 | 36799 ft | 526 kts | 160° |
| 2026-05-04 17:57 | 17.67985 | 11.38758 | 36799 ft | 526 kts | 160° |
| 2026-05-04 17:58 | 17.61316 | 11.41936 | 36798 ft | 526 kts | 160° |
| 2026-05-04 17:58 | 17.54655 | 11.45109 | 36802 ft | 526 kts | 160° |
| 2026-05-04 17:59 | 17.48033 | 11.48261 | 36800 ft | 526 kts | 160° |
| 2026-05-04 18:00 | 17.37761 | 11.52016 | 36799 ft | 520 kts | 168° |
| 2026-05-04 18:00 | 17.30813 | 11.54103 | 36799 ft | 519 kts | 169° |
| 2026-05-04 18:01 | 17.23859 | 11.56157 | 36800 ft | 519 kts | 169° |
| 2026-05-04 18:01 | 17.16950 | 11.58208 | 36793 ft | 519 kts | 169° |
| 2026-05-04 18:02 | 17.06527 | 11.61318 | 36792 ft | 519 kts | 168° |
| 2026-05-04 18:02 | 16.99563 | 11.63395 | 36794 ft | 521 kts | 168° |
| 2026-05-04 18:03 | 16.92630 | 11.65461 | 36796 ft | 522 kts | 168° |
| 2026-05-04 18:03 | 16.85645 | 11.67543 | 36796 ft | 522 kts | 168° |
| 2026-05-04 18:04 | 16.78676 | 11.69615 | 36796 ft | 520 kts | 169° |
| 2026-05-04 18:05 | 16.68241 | 11.72719 | 36786 ft | 519 kts | 169° |
| 2026-05-04 18:05 | 16.61312 | 11.74778 | 36789 ft | 517 kts | 169° |
| 2026-05-04 18:06 | 16.50979 | 11.77846 | 36796 ft | 517 kts | 169° |
| 2026-05-04 18:06 | 16.44061 | 11.79896 | 36796 ft | 517 kts | 169° |
| 2026-05-04 18:07 | 16.37144 | 11.81945 | 36798 ft | 517 kts | 169° |
| 2026-05-04 18:07 | 16.30276 | 11.83979 | 36795 ft | 516 kts | 169° |
| 2026-05-04 18:08 | 16.23379 | 11.86020 | 36794 ft | 515 kts | 169° |
| 2026-05-04 18:08 | 16.16486 | 11.88057 | 36793 ft | 515 kts | 169° |
| 2026-05-04 18:09 | 16.02745 | 11.92115 | 36790 ft | 515 kts | 169° |
| 2026-05-04 18:10 | 15.95835 | 11.94152 | 36795 ft | 518 kts | 169° |
| 2026-05-04 18:10 | 15.88889 | 11.96199 | 36790 ft | 519 kts | 169° |
| 2026-05-04 18:11 | 15.81938 | 11.98247 | 36785 ft | 520 kts | 169° |
| 2026-05-04 18:11 | 15.75028 | 12.00282 | 36789 ft | 519 kts | 169° |
| 2026-05-04 18:12 | 15.68073 | 12.02328 | 36786 ft | 519 kts | 169° |
| 2026-05-04 18:12 | 15.61112 | 12.04373 | 36789 ft | 520 kts | 168° |
| 2026-05-04 18:13 | 15.54146 | 12.06418 | 36782 ft | 520 kts | 168° |
| 2026-05-04 18:14 | 15.43746 | 12.09470 | 36780 ft | 520 kts | 168° |
| 2026-05-04 18:14 | 15.36781 | 12.11513 | 36783 ft | 520 kts | 168° |
| 2026-05-04 18:15 | 15.22856 | 12.15593 | 36782 ft | 519 kts | 168° |
| 2026-05-04 18:16 | 15.15956 | 12.17604 | 36780 ft | 519 kts | 168° |
| 2026-05-04 18:16 | 15.09009 | 12.19623 | 36779 ft | 519 kts | 168° |
| 2026-05-04 18:17 | 14.98587 | 12.22655 | 36779 ft | 518 kts | 168° |
| 2026-05-04 18:18 | 14.88218 | 12.25669 | 36778 ft | 519 kts | 168° |
| 2026-05-04 18:18 | 14.81270 | 12.27688 | 36778 ft | 519 kts | 168° |
| 2026-05-04 18:19 | 14.70847 | 12.30714 | 36776 ft | 519 kts | 168° |
| 2026-05-04 18:19 | 14.63948 | 12.32714 | 36775 ft | 519 kts | 168° |
| 2026-05-04 18:20 | 14.56998 | 12.34729 | 36773 ft | 519 kts | 168° |
| 2026-05-04 18:20 | 14.50045 | 12.36743 | 36774 ft | 519 kts | 168° |
| 2026-05-04 18:21 | 14.43083 | 12.38758 | 36774 ft | 519 kts | 168° |
| 2026-05-04 18:21 | 14.36171 | 12.40757 | 36774 ft | 519 kts | 168° |
| 2026-05-04 18:22 | 14.29220 | 12.42767 | 36771 ft | 519 kts | 168° |
| 2026-05-04 18:22 | 14.22268 | 12.44775 | 36771 ft | 519 kts | 168° |
| 2026-05-04 18:23 | 14.15321 | 12.46782 | 36771 ft | 519 kts | 168° |
| 2026-05-04 18:23 | 14.08413 | 12.48760 | 36771 ft | 518 kts | 168° |
| 2026-05-04 18:24 | 14.01462 | 12.50745 | 36768 ft | 518 kts | 168° |
| 2026-05-04 18:24 | 13.94508 | 12.52732 | 36768 ft | 518 kts | 168° |
| 2026-05-04 18:25 | 13.87560 | 12.54718 | 36766 ft | 518 kts | 168° |
| 2026-05-04 18:25 | 13.80670 | 12.56688 | 36769 ft | 517 kts | 168° |
| 2026-05-04 18:26 | 13.73744 | 12.58667 | 36769 ft | 516 kts | 168° |
| 2026-05-04 18:26 | 13.66819 | 12.60643 | 36768 ft | 516 kts | 168° |
| 2026-05-04 18:27 | 13.59889 | 12.62620 | 36766 ft | 517 kts | 168° |
| 2026-05-04 18:27 | 13.52964 | 12.64594 | 36756 ft | 517 kts | 167° |
| 2026-05-04 18:28 | 13.46085 | 12.66554 | 36766 ft | 517 kts | 167° |
| 2026-05-04 18:28 | 13.39154 | 12.68528 | 36766 ft | 517 kts | 167° |
| 2026-05-04 18:29 | 13.32225 | 12.70500 | 36768 ft | 517 kts | 167° |
| 2026-05-04 18:29 | 13.25289 | 12.72464 | 36768 ft | 517 kts | 168° |
| 2026-05-04 18:30 | 13.14916 | 12.75272 | 36769 ft | 516 kts | 168° |
| 2026-05-04 18:31 | 13.07992 | 12.77138 | 36776 ft | 514 kts | 167° |
| 2026-05-04 18:31 | 13.01087 | 12.79008 | 36774 ft | 513 kts | 167° |
| 2026-05-04 18:32 | 12.94185 | 12.80880 | 36777 ft | 513 kts | 167° |
| 2026-05-04 18:32 | 12.87286 | 12.82751 | 36777 ft | 513 kts | 167° |
| 2026-05-04 18:33 | 12.80434 | 12.84608 | 36772 ft | 514 kts | 167° |
| 2026-05-04 18:33 | 12.73485 | 12.86488 | 36776 ft | 519 kts | 167° |
| 2026-05-04 18:34 | 12.66482 | 12.88383 | 36776 ft | 521 kts | 167° |
| 2026-05-04 18:34 | 12.59479 | 12.90279 | 36777 ft | 521 kts | 167° |
| 2026-05-04 18:35 | 12.52519 | 12.92161 | 36777 ft | 521 kts | 167° |
| 2026-05-04 18:35 | 12.45513 | 12.94054 | 36776 ft | 521 kts | 167° |
| 2026-05-04 18:36 | 12.38500 | 12.95947 | 36780 ft | 522 kts | 167° |
| 2026-05-04 18:36 | 12.31473 | 12.97847 | 36779 ft | 522 kts | 167° |
| 2026-05-04 18:37 | 12.24494 | 12.99729 | 36777 ft | 522 kts | 167° |
| 2026-05-04 18:37 | 12.17467 | 13.01620 | 36780 ft | 522 kts | 167° |
| 2026-05-04 18:38 | 12.10444 | 13.03510 | 36784 ft | 522 kts | 167° |
| 2026-05-04 18:38 | 12.03404 | 13.05405 | 36784 ft | 524 kts | 167° |
| 2026-05-04 18:39 | 11.96386 | 13.07293 | 36792 ft | 525 kts | 167° |
| 2026-05-04 18:39 | 11.89317 | 13.09187 | 36793 ft | 525 kts | 168° |
| 2026-05-04 18:40 | 11.82128 | 13.10306 | 36796 ft | 522 kts | 176° |
| 2026-05-04 18:40 | 11.76124 | 13.10947 | 36797 ft | 522 kts | 177° |
| 2026-05-04 18:41 | 11.68891 | 13.11649 | 36797 ft | 522 kts | 177° |
| 2026-05-04 18:41 | 11.61646 | 13.12354 | 36799 ft | 523 kts | 177° |
| 2026-05-04 18:42 | 11.54450 | 13.13068 | 36807 ft | 523 kts | 176° |
| 2026-05-04 18:42 | 11.47208 | 13.13793 | 36802 ft | 523 kts | 176° |
| 2026-05-04 18:43 | 11.39969 | 13.14519 | 36806 ft | 523 kts | 176° |
| 2026-05-04 18:43 | 11.32735 | 13.15243 | 36807 ft | 521 kts | 176° |
| 2026-05-04 18:44 | 11.25520 | 13.15964 | 36810 ft | 521 kts | 176° |
| 2026-05-04 18:44 | 11.18360 | 13.16680 | 36810 ft | 520 kts | 176° |
| 2026-05-04 18:45 | 11.11153 | 13.17399 | 36815 ft | 520 kts | 176° |
| 2026-05-04 18:45 | 11.03944 | 13.18119 | 36815 ft | 520 kts | 176° |
| 2026-05-04 18:46 | 10.96739 | 13.18837 | 36825 ft | 520 kts | 176° |
| 2026-05-04 18:46 | 10.89587 | 13.19550 | 36826 ft | 520 kts | 176° |
| 2026-05-04 18:47 | 10.82386 | 13.20269 | 36824 ft | 520 kts | 176° |
| 2026-05-04 18:47 | 10.75185 | 13.20986 | 36823 ft | 520 kts | 176° |
| 2026-05-04 18:48 | 10.67984 | 13.21703 | 36837 ft | 520 kts | 176° |
| 2026-05-04 18:48 | 10.60783 | 13.22420 | 36837 ft | 520 kts | 176° |
| 2026-05-04 18:49 | 10.53634 | 13.23131 | 36845 ft | 520 kts | 176° |
| 2026-05-04 18:49 | 10.46437 | 13.23847 | 36846 ft | 520 kts | 176° |
| 2026-05-04 18:50 | 10.39232 | 13.24563 | 36851 ft | 520 kts | 176° |
| 2026-05-04 18:50 | 10.32031 | 13.25279 | 36850 ft | 520 kts | 176° |
| 2026-05-04 18:51 | 10.24886 | 13.25987 | 36860 ft | 519 kts | 176° |
| 2026-05-04 18:51 | 10.17706 | 13.26700 | 36857 ft | 518 kts | 176° |
| 2026-05-04 18:52 | 10.10536 | 13.27412 | 36857 ft | 518 kts | 176° |
| 2026-05-04 18:52 | 10.03361 | 13.28123 | 36863 ft | 518 kts | 176° |
| 2026-05-04 18:53 | 9.96184 | 13.28786 | 36857 ft | 518 kts | 176° |
| 2026-05-04 18:53 | 9.89060 | 13.29414 | 36854 ft | 517 kts | 176° |
| 2026-05-04 18:54 | 9.81905 | 13.30049 | 36844 ft | 516 kts | 176° |
| 2026-05-04 18:54 | 9.74753 | 13.30690 | 36838 ft | 516 kts | 176° |
| 2026-05-04 18:55 | 9.67597 | 13.31335 | 36826 ft | 516 kts | 176° |
| 2026-05-04 18:55 | 9.56919 | 13.32296 | 36827 ft | 516 kts | 176° |
| 2026-05-04 18:56 | 9.49771 | 13.32949 | 36819 ft | 515 kts | 176° |
| 2026-05-04 18:56 | 9.42630 | 13.33608 | 36809 ft | 515 kts | 176° |
| 2026-05-04 18:57 | 9.35492 | 13.34265 | 36810 ft | 515 kts | 176° |
| 2026-05-04 18:57 | 9.28400 | 13.34947 | 36811 ft | 515 kts | 175° |
| 2026-05-04 18:58 | 9.21272 | 13.35702 | 36820 ft | 515 kts | 175° |
| 2026-05-04 18:58 | 9.14144 | 13.36463 | 36819 ft | 514 kts | 175° |
| 2026-05-04 18:59 | 9.07027 | 13.37211 | 36814 ft | 514 kts | 175° |
| 2026-05-04 18:59 | 8.99911 | 13.37954 | 36813 ft | 514 kts | 175° |
| 2026-05-04 19:00 | 8.92839 | 13.38690 | 36828 ft | 514 kts | 175° |
| 2026-05-04 19:00 | 8.85720 | 13.39431 | 36823 ft | 514 kts | 175° |
| 2026-05-04 19:01 | 8.78590 | 13.40173 | 36840 ft | 516 kts | 175° |
| 2026-05-04 19:01 | 8.71439 | 13.40918 | 36836 ft | 517 kts | 175° |
| 2026-05-04 19:02 | 8.64333 | 13.41657 | 36860 ft | 517 kts | 175° |
| 2026-05-04 19:02 | 8.57175 | 13.42402 | 36858 ft | 517 kts | 175° |
| 2026-05-04 19:03 | 8.50020 | 13.43146 | 36869 ft | 517 kts | 175° |
| 2026-05-04 19:03 | 8.42867 | 13.43890 | 36864 ft | 517 kts | 175° |
| 2026-05-04 19:04 | 8.35718 | 13.44633 | 36880 ft | 516 kts | 175° |
| 2026-05-04 19:04 | 8.28619 | 13.45371 | 36875 ft | 516 kts | 175° |
| 2026-05-04 19:05 | 8.21476 | 13.46110 | 36891 ft | 516 kts | 175° |
| 2026-05-04 19:05 | 8.14326 | 13.46854 | 36894 ft | 517 kts | 175° |
| 2026-05-04 19:06 | 8.07180 | 13.47595 | 36892 ft | 516 kts | 175° |
| 2026-05-04 19:06 | 8.00094 | 13.48330 | 36889 ft | 515 kts | 175° |
| 2026-05-04 19:07 | 7.92960 | 13.49070 | 36902 ft | 515 kts | 175° |
| 2026-05-04 19:07 | 7.85824 | 13.49809 | 36906 ft | 515 kts | 175° |
| 2026-05-04 19:08 | 7.78688 | 13.50549 | 36926 ft | 516 kts | 175° |
| 2026-05-04 19:08 | 7.71601 | 13.51284 | 36921 ft | 516 kts | 175° |
| 2026-05-04 19:09 | 7.64463 | 13.52023 | 36943 ft | 516 kts | 175° |
| 2026-05-04 19:09 | 7.57323 | 13.52762 | 36938 ft | 516 kts | 175° |
| 2026-05-04 19:10 | 7.50187 | 13.53500 | 36954 ft | 516 kts | 175° |
| 2026-05-04 19:10 | 7.43096 | 13.54234 | 36952 ft | 516 kts | 175° |
| 2026-05-04 19:11 | 7.35960 | 13.54972 | 36962 ft | 516 kts | 175° |
| 2026-05-04 19:11 | 7.28818 | 13.55709 | 36963 ft | 516 kts | 175° |
| 2026-05-04 19:12 | 7.18107 | 13.56891 | 36962 ft | 517 kts | 173° |
| 2026-05-04 19:13 | 7.10999 | 13.57990 | 36954 ft | 517 kts | 172° |
| 2026-05-04 19:13 | 7.03949 | 13.59121 | 36959 ft | 517 kts | 172° |
| 2026-05-04 19:14 | 6.96839 | 13.60218 | 36954 ft | 517 kts | 172° |
| 2026-05-04 19:14 | 6.89735 | 13.61288 | 36941 ft | 517 kts | 173° |
| 2026-05-04 19:15 | 6.82621 | 13.62352 | 36946 ft | 517 kts | 172° |
| 2026-05-04 19:15 | 6.75558 | 13.63409 | 36946 ft | 517 kts | 172° |
| 2026-05-04 19:16 | 6.68445 | 13.64475 | 36937 ft | 517 kts | 172° |
| 2026-05-04 19:16 | 6.61331 | 13.65541 | 36931 ft | 517 kts | 172° |
| 2026-05-04 19:17 | 6.54215 | 13.66608 | 36931 ft | 517 kts | 172° |
| 2026-05-04 19:17 | 6.47093 | 13.67675 | 36925 ft | 518 kts | 172° |
| 2026-05-04 19:18 | 6.40017 | 13.68734 | 36919 ft | 517 kts | 172° |
| 2026-05-04 19:18 | 6.32897 | 13.69805 | 36917 ft | 518 kts | 172° |
| 2026-05-04 19:19 | 6.25772 | 13.70870 | 36918 ft | 518 kts | 172° |
| 2026-05-04 19:19 | 6.18649 | 13.71933 | 36920 ft | 518 kts | 172° |
| 2026-05-04 19:20 | 6.11525 | 13.72999 | 36921 ft | 518 kts | 172° |
| 2026-05-04 19:20 | 6.04449 | 13.74055 | 36920 ft | 518 kts | 172° |
| 2026-05-04 19:21 | 5.97323 | 13.75118 | 36923 ft | 518 kts | 172° |
| 2026-05-04 19:21 | 5.90196 | 13.76181 | 36908 ft | 518 kts | 172° |
| 2026-05-04 19:22 | 5.83062 | 13.77244 | 36905 ft | 519 kts | 172° |
| 2026-05-04 19:22 | 5.75971 | 13.78302 | 36904 ft | 519 kts | 172° |
| 2026-05-04 19:23 | 5.68828 | 13.79367 | 36912 ft | 519 kts | 172° |
| 2026-05-04 19:23 | 5.61688 | 13.80432 | 36916 ft | 519 kts | 172° |
| 2026-05-04 19:24 | 5.54542 | 13.81496 | 36922 ft | 519 kts | 172° |
| 2026-05-04 19:24 | 5.47441 | 13.82553 | 36923 ft | 520 kts | 172° |
| 2026-05-04 19:25 | 5.40280 | 13.83621 | 36923 ft | 520 kts | 172° |
| 2026-05-04 19:25 | 5.33117 | 13.84688 | 36918 ft | 520 kts | 172° |
| 2026-05-04 19:26 | 5.25957 | 13.85754 | 36924 ft | 520 kts | 172° |
| 2026-05-04 19:26 | 5.18786 | 13.86821 | 36924 ft | 521 kts | 172° |
| 2026-05-04 19:27 | 5.11657 | 13.87884 | 36931 ft | 522 kts | 172° |
| 2026-05-04 19:27 | 5.04470 | 13.88955 | 36932 ft | 522 kts | 172° |
| 2026-05-04 19:28 | 4.97283 | 13.90023 | 36933 ft | 522 kts | 172° |
| 2026-05-04 19:28 | 4.90145 | 13.91084 | 36930 ft | 522 kts | 172° |
| 2026-05-04 19:29 | 4.82957 | 13.92153 | 36924 ft | 522 kts | 172° |
| 2026-05-04 19:29 | 4.75772 | 13.93221 | 36920 ft | 522 kts | 171° |
| 2026-05-04 19:30 | 4.68587 | 13.94290 | 36931 ft | 522 kts | 171° |
| 2026-05-04 19:30 | 4.61409 | 13.95357 | 36931 ft | 521 kts | 171° |
| 2026-05-04 19:31 | 4.54275 | 13.96417 | 36929 ft | 522 kts | 171° |
| 2026-05-04 19:31 | 4.47099 | 13.97484 | 36914 ft | 521 kts | 171° |
| 2026-05-04 19:32 | 4.39932 | 13.98548 | 36926 ft | 519 kts | 171° |
| 2026-05-04 19:32 | 4.32791 | 13.99608 | 36929 ft | 518 kts | 171° |
| 2026-05-04 19:33 | 4.25715 | 14.00660 | 36929 ft | 518 kts | 171° |
| 2026-05-04 19:33 | 4.18588 | 14.01719 | 36928 ft | 518 kts | 171° |
| 2026-05-04 19:34 | 4.11462 | 14.02777 | 36925 ft | 518 kts | 171° |
| 2026-05-04 19:34 | 4.04341 | 14.03833 | 36926 ft | 517 kts | 170° |
| 2026-05-04 19:35 | 3.97287 | 14.04880 | 36924 ft | 515 kts | 170° |
| 2026-05-04 19:35 | 3.90199 | 14.05929 | 36927 ft | 515 kts | 170° |
| 2026-05-04 19:36 | 3.83122 | 14.06977 | 36926 ft | 515 kts | 170° |
| 2026-05-04 19:36 | 3.76035 | 14.08027 | 36923 ft | 514 kts | 170° |
| 2026-05-04 19:37 | 3.68952 | 14.09075 | 36926 ft | 514 kts | 170° |
| 2026-05-04 19:37 | 3.61929 | 14.10114 | 36927 ft | 513 kts | 170° |
| 2026-05-04 19:38 | 3.54868 | 14.11159 | 36924 ft | 513 kts | 170° |
| 2026-05-04 19:38 | 3.47805 | 14.12208 | 36925 ft | 513 kts | 170° |
| 2026-05-04 19:39 | 3.40743 | 14.13252 | 36931 ft | 513 kts | 170° |
| 2026-05-04 19:39 | 3.33732 | 14.14288 | 36928 ft | 513 kts | 170° |
| 2026-05-04 19:40 | 3.26670 | 14.15332 | 36927 ft | 513 kts | 170° |
| 2026-05-04 19:40 | 3.19635 | 14.16372 | 36930 ft | 513 kts | 170° |
| 2026-05-04 19:41 | 3.12579 | 14.17418 | 36932 ft | 508 kts | 170° |
| 2026-05-04 19:41 | 3.09125 | 14.17930 | 36936 ft | 497 kts | 170° |
| 2026-05-04 19:41 | 3.05779 | 14.18424 | 36935 ft | 490 kts | 170° |
| 2026-05-04 19:42 | 2.99045 | 14.19420 | 36932 ft | 488 kts | 170° |
| 2026-05-04 19:42 | 2.92324 | 14.20415 | 36933 ft | 489 kts | 170° |
| 2026-05-04 19:43 | 2.85591 | 14.21412 | 36934 ft | 489 kts | 170° |
| 2026-05-04 19:43 | 2.78852 | 14.22411 | 36936 ft | 490 kts | 170° |
| 2026-05-04 19:44 | 2.72151 | 14.23403 | 36935 ft | 490 kts | 170° |
| 2026-05-04 19:44 | 2.65399 | 14.24401 | 36936 ft | 490 kts | 170° |
| 2026-05-04 19:45 | 2.58653 | 14.25399 | 36941 ft | 490 kts | 170° |
| 2026-05-04 19:45 | 2.51901 | 14.26398 | 36937 ft | 490 kts | 170° |
| 2026-05-04 19:46 | 2.45199 | 14.27390 | 36937 ft | 490 kts | 170° |
| 2026-05-04 19:46 | 2.38453 | 14.28388 | 36940 ft | 490 kts | 170° |
| 2026-05-04 19:47 | 2.31704 | 14.29387 | 36943 ft | 490 kts | 170° |
| 2026-05-04 19:47 | 2.24956 | 14.30388 | 36940 ft | 490 kts | 170° |
| 2026-05-04 19:48 | 2.18203 | 14.31386 | 36940 ft | 491 kts | 170° |
| 2026-05-04 19:48 | 2.11485 | 14.32376 | 36941 ft | 492 kts | 170° |
| 2026-05-04 19:49 | 2.04713 | 14.33375 | 36941 ft | 492 kts | 170° |
| 2026-05-04 19:49 | 1.97941 | 14.34376 | 36943 ft | 492 kts | 170° |
| 2026-05-04 19:50 | 1.91169 | 14.35376 | 36945 ft | 492 kts | 170° |
| 2026-05-04 19:50 | 1.84445 | 14.36369 | 36950 ft | 492 kts | 170° |
| 2026-05-04 19:51 | 1.77668 | 14.37371 | 36943 ft | 493 kts | 170° |
| 2026-05-04 19:51 | 1.70875 | 14.38374 | 36941 ft | 493 kts | 170° |
| 2026-05-04 19:52 | 1.64083 | 14.39377 | 36942 ft | 493 kts | 170° |
| 2026-05-04 19:52 | 1.57337 | 14.40373 | 36945 ft | 493 kts | 170° |
| 2026-05-04 19:53 | 1.50547 | 14.41376 | 36946 ft | 493 kts | 170° |
| 2026-05-04 19:53 | 1.43752 | 14.42380 | 36946 ft | 494 kts | 170° |
| 2026-05-04 19:54 | 1.36950 | 14.43384 | 36936 ft | 494 kts | 170° |
| 2026-05-04 19:54 | 1.30142 | 14.44389 | 36951 ft | 494 kts | 170° |
| 2026-05-04 19:55 | 1.23387 | 14.45386 | 36949 ft | 494 kts | 170° |
| 2026-05-04 19:55 | 1.16579 | 14.46392 | 36947 ft | 494 kts | 170° |
| 2026-05-04 19:56 | 1.09773 | 14.47397 | 36942 ft | 494 kts | 171° |
| 2026-05-04 19:56 | 1.02965 | 14.48402 | 36942 ft | 495 kts | 171° |
| 2026-05-04 19:57 | 0.96199 | 14.49400 | 36944 ft | 495 kts | 171° |
| 2026-05-04 19:57 | 0.89385 | 14.50406 | 36940 ft | 495 kts | 171° |
| 2026-05-04 19:58 | 0.82569 | 14.51412 | 36940 ft | 495 kts | 171° |
| 2026-05-04 19:58 | 0.75756 | 14.52417 | 36935 ft | 495 kts | 171° |
| 2026-05-04 19:59 | 0.68987 | 14.53417 | 36938 ft | 495 kts | 171° |
| 2026-05-04 19:59 | 0.62166 | 14.54423 | 36946 ft | 496 kts | 171° |
| 2026-05-04 20:00 | 0.55337 | 14.55431 | 36944 ft | 496 kts | 171° |
| 2026-05-04 20:00 | 0.48509 | 14.56438 | 36938 ft | 496 kts | 171° |
| 2026-05-04 20:01 | 0.41693 | 14.57444 | 36944 ft | 496 kts | 171° |
| 2026-05-04 20:01 | 0.34913 | 14.58445 | 36947 ft | 496 kts | 171° |
| 2026-05-04 20:02 | 0.28099 | 14.59450 | 36942 ft | 494 kts | 171° |
| 2026-05-04 20:02 | 0.21302 | 14.60454 | 36948 ft | 494 kts | 171° |
| 2026-05-04 20:03 | 0.14504 | 14.61457 | 36956 ft | 494 kts | 171° |
| 2026-05-04 20:03 | 0.07701 | 14.62461 | 36956 ft | 494 kts | 171° |
| 2026-05-04 20:04 | 0.00952 | 14.63461 | 36949 ft | 494 kts | 171° |
| 2026-05-04 20:04 | -0.05841 | 14.64462 | 36951 ft | 492 kts | 170° |
| 2026-05-04 20:05 | -0.12607 | 14.65458 | 36952 ft | 491 kts | 170° |
| 2026-05-04 20:05 | -0.19363 | 14.66455 | 36952 ft | 491 kts | 170° |
| 2026-05-04 20:06 | -0.26081 | 14.67446 | 36949 ft | 491 kts | 170° |
| 2026-05-04 20:06 | -0.32841 | 14.68443 | 36958 ft | 491 kts | 170° |
| 2026-05-04 20:07 | -0.39602 | 14.69441 | 36954 ft | 491 kts | 170° |
| 2026-05-04 20:07 | -0.46365 | 14.70439 | 36960 ft | 491 kts | 170° |
| 2026-05-04 20:08 | -0.53079 | 14.71429 | 36962 ft | 491 kts | 170° |
| 2026-05-04 20:08 | -0.59838 | 14.72427 | 36968 ft | 491 kts | 170° |
| 2026-05-04 20:09 | -0.66596 | 14.73424 | 36972 ft | 491 kts | 170° |
| 2026-05-04 20:09 | -0.73359 | 14.74421 | 36966 ft | 491 kts | 170° |
| 2026-05-04 20:10 | -0.80127 | 14.75420 | 36971 ft | 492 kts | 171° |
| 2026-05-04 20:10 | -0.86865 | 14.76415 | 36964 ft | 493 kts | 171° |
| 2026-05-04 20:11 | -0.93649 | 14.77416 | 36975 ft | 493 kts | 171° |
| 2026-05-04 20:11 | -1.00433 | 14.78417 | 36971 ft | 493 kts | 171° |
| 2026-05-04 20:12 | -1.07220 | 14.79419 | 36983 ft | 493 kts | 171° |
| 2026-05-04 20:12 | -1.13962 | 14.80413 | 36982 ft | 493 kts | 170° |
| 2026-05-04 20:13 | -1.20755 | 14.81416 | 36987 ft | 494 kts | 170° |
| 2026-05-04 20:13 | -1.27554 | 14.82419 | 36987 ft | 494 kts | 170° |
| 2026-05-04 20:14 | -1.34350 | 14.83423 | 36988 ft | 494 kts | 170° |
| 2026-05-04 20:14 | -1.41175 | 14.84431 | 36982 ft | 506 kts | 170° |
| 2026-05-04 20:15 | -1.48158 | 14.85462 | 36992 ft | 505 kts | 170° |
| 2026-05-04 20:15 | -1.55184 | 14.86500 | 36990 ft | 516 kts | 170° |
| 2026-05-04 20:16 | -1.62346 | 14.87558 | 36989 ft | 523 kts | 170° |
| 2026-05-04 20:16 | -1.69549 | 14.88621 | 36985 ft | 519 kts | 170° |
| 2026-05-04 20:17 | -1.76536 | 14.89649 | 36990 ft | 504 kts | 170° |
| 2026-05-04 20:17 | -1.83406 | 14.90663 | 36990 ft | 497 kts | 170° |
| 2026-05-04 20:18 | -1.90275 | 14.91681 | 36985 ft | 501 kts | 170° |
| 2026-05-04 20:18 | -1.97084 | 14.92687 | 36986 ft | 489 kts | 170° |
| 2026-05-04 20:19 | -2.03835 | 14.93686 | 36980 ft | 501 kts | 170° |
| 2026-05-04 20:19 | -2.10838 | 14.94722 | 36927 ft | 516 kts | 170° |
| 2026-05-04 20:20 | -2.18010 | 14.95783 | 36904 ft | 524 kts | 170° |
| 2026-05-04 20:20 | -2.25250 | 14.96853 | 36899 ft | 527 kts | 170° |
| 2026-05-04 20:21 | -2.32498 | 14.97924 | 36880 ft | 522 kts | 170° |
| 2026-05-04 20:21 | -2.36068 | 14.98452 | 36740 ft | 515 kts | 170° |
| 2026-05-04 20:21 | -2.43050 | 14.99484 | 36496 ft | 507 kts | 170° |
| 2026-05-04 20:22 | -2.46531 | 14.99999 | 36303 ft | 505 kts | 170° |
| 2026-05-04 20:22 | -2.50001 | 15.00513 | 36073 ft | 504 kts | 170° |
| 2026-05-04 20:22 | -2.53472 | 15.01026 | 35714 ft | 506 kts | 170° |
| 2026-05-04 20:22 | -2.57011 | 15.01551 | 35425 ft | 520 kts | 170° |
| 2026-05-04 20:23 | -2.64179 | 15.02612 | 35377 ft | 527 kts | 170° |
| 2026-05-04 20:23 | -2.71451 | 15.03687 | 35369 ft | 529 kts | 170° |
| 2026-05-04 20:24 | -2.78657 | 15.04753 | 35131 ft | 512 kts | 170° |
| 2026-05-04 20:24 | -2.82142 | 15.05268 | 34829 ft | 502 kts | 170° |
| 2026-05-04 20:24 | -2.85574 | 15.05775 | 34371 ft | 496 kts | 170° |
| 2026-05-04 20:25 | -2.88972 | 15.06278 | 33877 ft | 492 kts | 170° |
| 2026-05-04 20:25 | -2.92344 | 15.06778 | 33311 ft | 488 kts | 170° |
| 2026-05-04 20:25 | -2.95687 | 15.07273 | 32787 ft | 484 kts | 170° |
| 2026-05-04 20:25 | -2.98961 | 15.07758 | 32256 ft | 480 kts | 170° |
| 2026-05-04 20:26 | -3.02253 | 15.08245 | 31764 ft | 476 kts | 170° |
| 2026-05-04 20:26 | -3.05515 | 15.08728 | 31268 ft | 472 kts | 170° |
| 2026-05-04 20:26 | -3.08752 | 15.09208 | 30788 ft | 468 kts | 170° |
| 2026-05-04 20:26 | -3.11965 | 15.09684 | 30315 ft | 464 kts | 170° |
| 2026-05-04 20:27 | -3.15144 | 15.10155 | 29807 ft | 461 kts | 170° |
| 2026-05-04 20:27 | -3.18304 | 15.10623 | 29266 ft | 457 kts | 170° |
| 2026-05-04 20:27 | -3.21437 | 15.11087 | 28747 ft | 453 kts | 170° |
| 2026-05-04 20:27 | -3.24498 | 15.11541 | 28246 ft | 449 kts | 170° |
| 2026-05-04 20:28 | -3.27572 | 15.11996 | 27745 ft | 445 kts | 170° |
| 2026-05-04 20:28 | -3.30620 | 15.12448 | 27246 ft | 441 kts | 170° |
| 2026-05-04 20:28 | -3.33644 | 15.12896 | 26748 ft | 438 kts | 170° |
| 2026-05-04 20:28 | -3.36645 | 15.13341 | 26258 ft | 434 kts | 170° |
| 2026-05-04 20:29 | -3.39622 | 15.13782 | 25776 ft | 430 kts | 170° |
| 2026-05-04 20:29 | -3.42596 | 15.14223 | 25018 ft | 434 kts | 170° |
| 2026-05-04 20:29 | -3.45589 | 15.14667 | 24308 ft | 437 kts | 170° |
| 2026-05-04 20:29 | -3.48597 | 15.15113 | 23706 ft | 437 kts | 170° |
| 2026-05-04 20:30 | -3.51555 | 15.15551 | 23058 ft | 435 kts | 170° |
| 2026-05-04 20:30 | -3.54529 | 15.16026 | 22369 ft | 430 kts | 162° |
| 2026-05-04 20:30 | -3.57449 | 15.16640 | 21476 ft | 429 kts | 161° |
| 2026-05-04 20:30 | -3.60362 | 15.17198 | 20743 ft | 424 kts | 163° |
| 2026-05-04 20:31 | -3.63201 | 15.17715 | 19797 ft | 405 kts | 162° |
| 2026-05-04 20:31 | -3.65902 | 15.18187 | 19180 ft | 380 kts | 161° |
| 2026-05-04 20:31 | -3.68465 | 15.18660 | 18751 ft | 369 kts | 160° |
| 2026-05-04 20:31 | -3.70963 | 15.19102 | 18281 ft | 361 kts | 161° |
| 2026-05-04 20:32 | -3.73421 | 15.19506 | 17794 ft | 357 kts | 162° |
| 2026-05-04 20:32 | -3.75867 | 15.19892 | 17342 ft | 355 kts | 162° |
| 2026-05-04 20:32 | -3.78270 | 15.20263 | 16893 ft | 353 kts | 162° |
| 2026-05-04 20:32 | -3.80684 | 15.20630 | 16459 ft | 350 kts | 162° |
| 2026-05-04 20:33 | -3.83088 | 15.20992 | 16028 ft | 348 kts | 162° |
| 2026-05-04 20:33 | -3.85469 | 15.21334 | 15520 ft | 346 kts | 164° |
| 2026-05-04 20:33 | -3.87858 | 15.21587 | 15003 ft | 343 kts | 165° |
| 2026-05-04 20:33 | -3.90193 | 15.21801 | 14795 ft | 327 kts | 166° |
| 2026-05-04 20:34 | -3.92390 | 15.21990 | 14686 ft | 307 kts | 166° |
| 2026-05-04 20:34 | -3.94458 | 15.22160 | 14562 ft | 290 kts | 166° |
| 2026-05-04 20:34 | -3.96411 | 15.22315 | 14434 ft | 275 kts | 166° |
| 2026-05-04 20:34 | -3.98305 | 15.22474 | 14289 ft | 272 kts | 165° |
| 2026-05-04 20:35 | -4.00165 | 15.22647 | 14095 ft | 272 kts | 165° |
| 2026-05-04 20:35 | -4.02041 | 15.22831 | 13809 ft | 270 kts | 165° |
| 2026-05-04 20:35 | -4.03911 | 15.23018 | 13513 ft | 269 kts | 165° |
| 2026-05-04 20:35 | -4.05861 | 15.23002 | 13363 ft | 293 kts | 180° |
| 2026-05-04 20:36 | -4.07825 | 15.22373 | 13251 ft | 297 kts | 198° |
| 2026-05-04 20:36 | -4.09505 | 15.21158 | 13093 ft | 301 kts | 217° |
| 2026-05-04 20:36 | -4.10720 | 15.19453 | 13155 ft | 303 kts | 236° |
| 2026-05-04 20:36 | -4.11343 | 15.17438 | 13388 ft | 305 kts | 254° |
| 2026-05-04 20:37 | -4.11355 | 15.15369 | 13366 ft | 300 kts | 270° |
| 2026-05-04 20:37 | -4.10752 | 15.13371 | 12954 ft | 303 kts | 289° |
| 2026-05-04 20:37 | -4.09549 | 15.11648 | 12522 ft | 302 kts | 308° |
| 2026-05-04 20:37 | -4.07869 | 15.10416 | 12242 ft | 299 kts | 327° |
| 2026-05-04 20:38 | -4.05897 | 15.09807 | 12196 ft | 297 kts | 346° |
| 2026-05-04 20:38 | -4.03849 | 15.09877 | 12216 ft | 295 kts | 6° |
| 2026-05-04 20:38 | -4.01921 | 15.10532 | 12536 ft | 289 kts | 13° |
| 2026-05-04 20:38 | -4.00032 | 15.11169 | 12994 ft | 279 kts | 8° |
| 2026-05-04 20:39 | -3.98272 | 15.11719 | 12839 ft | 263 kts | 13° |
| 2026-05-04 20:39 | -3.96688 | 15.12642 | 12098 ft | 270 kts | 33° |
| 2026-05-04 20:39 | -3.95296 | 15.13926 | 11476 ft | 274 kts | 38° |
| 2026-05-04 20:39 | -3.94101 | 15.15424 | 10784 ft | 278 kts | 53° |
| 2026-05-04 20:40 | -3.93432 | 15.17234 | 10212 ft | 278 kts | 73° |
| 2026-05-04 20:40 | -3.93425 | 15.19147 | 9717 ft | 274 kts | 92° |
| 2026-05-04 20:40 | -3.94064 | 15.20922 | 9182 ft | 271 kts | 112° |
| 2026-05-04 20:40 | -3.95249 | 15.22335 | 8680 ft | 269 kts | 132° |
| 2026-05-04 20:41 | -3.96858 | 15.23251 | 8153 ft | 267 kts | 153° |
| 2026-05-04 20:41 | -3.98677 | 15.23540 | 7657 ft | 265 kts | 172° |
| 2026-05-04 20:41 | -4.00491 | 15.23400 | 7327 ft | 258 kts | 175° |
| 2026-05-04 20:41 | -4.02273 | 15.23300 | 6854 ft | 256 kts | 172° |
| 2026-05-04 20:42 | -4.04057 | 15.23300 | 6325 ft | 257 kts | 169° |
| 2026-05-04 20:42 | -4.05849 | 15.23156 | 5641 ft | 262 kts | 185° |
| 2026-05-04 20:42 | -4.07511 | 15.22433 | 5094 ft | 261 kts | 206° |
| 2026-05-04 20:42 | -4.08794 | 15.21177 | 4628 ft | 258 kts | 226° |
| 2026-05-04 20:43 | -4.09533 | 15.19567 | 4154 ft | 254 kts | 248° |
| 2026-05-04 20:43 | -4.09608 | 15.17843 | 3927 ft | 256 kts | 270° |
| 2026-05-04 20:43 | -4.09018 | 15.16141 | 3923 ft | 263 kts | 290° |
| 2026-05-04 20:43 | -4.07862 | 15.14717 | 3929 ft | 266 kts | 310° |
| 2026-05-04 20:44 | -4.06283 | 15.13757 | 3931 ft | 268 kts | 330° |
| 2026-05-04 20:44 | -4.04462 | 15.13377 | 3931 ft | 269 kts | 350° |
| 2026-05-04 20:44 | -4.02603 | 15.13499 | 3947 ft | 264 kts | 358° |
| 2026-05-04 20:44 | -4.00797 | 15.13722 | 3935 ft | 260 kts | 359° |
| 2026-05-04 20:45 | -3.99010 | 15.13941 | 3935 ft | 258 kts | 356° |
| 2026-05-04 20:45 | -3.97231 | 15.14184 | 3915 ft | 264 kts | 7° |
| 2026-05-04 20:45 | -3.95579 | 15.14961 | 3930 ft | 269 kts | 27° |
| 2026-05-04 20:45 | -3.94248 | 15.16268 | 3936 ft | 269 kts | 47° |
| 2026-05-04 20:46 | -3.93427 | 15.17939 | 3936 ft | 268 kts | 67° |
| 2026-05-04 20:46 | -3.93214 | 15.19775 | 3941 ft | 266 kts | 87° |
| 2026-05-04 20:46 | -3.93627 | 15.21562 | 3938 ft | 264 kts | 107° |
| 2026-05-04 20:46 | -3.94615 | 15.23090 | 3947 ft | 262 kts | 127° |
| 2026-05-04 20:47 | -3.96055 | 15.24181 | 3937 ft | 260 kts | 146° |
| 2026-05-04 20:47 | -3.97771 | 15.24708 | 3930 ft | 258 kts | 166° |
| 2026-05-04 20:47 | -3.99552 | 15.24608 | 3937 ft | 257 kts | 186° |
| 2026-05-04 20:47 | -4.01230 | 15.24133 | 3955 ft | 250 kts | 187° |
| 2026-05-04 20:48 | -4.02900 | 15.23767 | 3940 ft | 243 kts | 181° |
| 2026-05-04 20:48 | -4.04578 | 15.23584 | 3929 ft | 243 kts | 174° |
| 2026-05-04 20:48 | -4.06211 | 15.23855 | 3928 ft | 237 kts | 142° |
| 2026-05-04 20:48 | -4.07067 | 15.25159 | 3881 ft | 231 kts | 89° |
| 2026-05-04 20:49 | -4.06614 | 15.26691 | 3810 ft | 240 kts | 53° |
| 2026-05-04 20:49 | -4.05909 | 15.28291 | 3667 ft | 260 kts | 67° |
| 2026-05-04 20:49 | -4.05654 | 15.30087 | 3567 ft | 261 kts | 83° |
| 2026-05-04 20:49 | -4.05831 | 15.31886 | 3478 ft | 259 kts | 95° |
| 2026-05-04 20:50 | -4.06312 | 15.33595 | 3429 ft | 257 kts | 103° |
| 2026-05-04 20:50 | -4.07024 | 15.35216 | 3322 ft | 255 kts | 111° |
| 2026-05-04 20:50 | -4.07918 | 15.36751 | 3210 ft | 255 kts | 117° |
| 2026-05-04 20:50 | -4.08956 | 15.38179 | 3095 ft | 253 kts | 122° |
| 2026-05-04 20:51 | -4.10238 | 15.39387 | 3014 ft | 256 kts | 141° |
| 2026-05-04 20:51 | -4.11870 | 15.40077 | 2991 ft | 256 kts | 161° |
| 2026-05-04 20:51 | -4.13630 | 15.40155 | 2990 ft | 254 kts | 181° |
| 2026-05-04 20:51 | -4.15297 | 15.39616 | 2994 ft | 253 kts | 201° |
| 2026-05-04 20:52 | -4.16649 | 15.38546 | 2993 ft | 252 kts | 221° |
| 2026-05-04 20:52 | -4.17603 | 15.37093 | 3005 ft | 242 kts | 232° |
| 2026-05-04 20:52 | -4.18339 | 15.35674 | 3020 ft | 217 kts | 234° |
| 2026-05-04 20:52 | -4.18944 | 15.34392 | 2958 ft | 189 kts | 235° |
| 2026-05-04 20:53 | -4.19444 | 15.33256 | 2741 ft | 170 kts | 235° |
| 2026-05-04 20:53 | -4.19912 | 15.32227 | 2460 ft | 155 kts | 235° |
| 2026-05-04 20:53 | -4.20348 | 15.31280 | 2178 ft | 146 kts | 234° |
| 2026-05-04 20:53 | -4.20799 | 15.30404 | 1965 ft | 138 kts | 231° |
| 2026-05-04 20:54 | -4.21324 | 15.29607 | 1807 ft | 138 kts | 224° |
| 2026-05-04 20:54 | -4.21935 | 15.28857 | 1628 ft | 141 kts | 220° |
| 2026-05-04 20:54 | -4.22575 | 15.28137 | 1497 ft | 141 kts | 219° |
| 2026-05-04 20:54 | -4.23211 | 15.27379 | 1361 ft | 144 kts | 232° |
| 2026-05-04 20:55 | -4.23834 | 15.26605 | 1152 ft | 141 kts | 230° |
| 2026-05-04 20:55 | -4.24444 | 15.25873 | 1061 ft | 130 kts | 229° |
| 2026-05-04 20:55 | -4.24979 | 15.25245 | 1048 ft | 112 kts | 230° |
| 2026-05-04 20:55 | -4.25354 | 15.24796 | 1041 ft | 44 kts | 230° |
| 2026-05-04 20:56 | -4.25407 | 15.24733 | 1040 ft | 4 kts | 230° |
| 2026-05-04 20:56 | -4.25493 | 15.24630 | 1040 ft | 35 kts | 230° |
| 2026-05-04 20:56 | -4.25689 | 15.24392 | 1040 ft | 47 kts | 230° |
| 2026-05-04 20:56 | -4.25875 | 15.24235 | 1038 ft | 22 kts | 184° |
| 2026-05-04 20:57 | -4.25976 | 15.24308 | 1038 ft | 13 kts | 98° |
| 2026-05-04 20:57 | -4.25951 | 15.24373 | 1039 ft | 10 kts | 53° |
| 2026-05-04 20:57 | -4.25897 | 15.24444 | 1039 ft | 15 kts | 51° |
| 2026-05-04 20:57 | -4.25873 | 15.24503 | 1040 ft | 5 kts | 109° |
| 2026-05-04 20:58 | -4.25901 | 15.24548 | 1040 ft | 9 kts | 136° |
| 2026-05-04 20:58 | -4.25965 | 15.24604 | 1039 ft | 15 kts | 139° |
| 2026-05-04 20:58 | -4.26004 | 15.24686 | 1040 ft | 9 kts | 74° |
| 2026-05-04 20:58 | -4.25966 | 15.24739 | 1040 ft | 12 kts | 53° |
| 2026-05-04 20:59 | -4.25902 | 15.24813 | 1041 ft | 17 kts | 49° |
| 2026-05-04 20:59 | -4.25817 | 15.24911 | 1041 ft | 17 kts | 49° |
| 2026-05-04 20:59 | -4.25782 | 15.24972 | 1042 ft | 14 kts | 81° |
| 2026-05-04 20:59 | -4.25785 | 15.24993 | 1042 ft | 0 kts | 114° |
| 2026-05-04 21:00 | -4.25790 | 15.24998 | 1042 ft | 2 kts | 130° |
| 2026-05-04 21:00 | -4.25803 | 15.25009 | 1042 ft | 4 kts | 146° |
| 2026-05-04 21:00 | -4.25805 | 15.25010 | 1042 ft | 0 kts | 148° |